Main page
METAR-TAF:

METAR-TAF

Airports :

Malé, Maldives

Velana International Airport

latitude: 04-12N, longitude: 073-32E, elevation: 2 m

Current weather observation

The report was made 1 hour and 22 minutes ago, at 10:00 UTC
Wind 7 kt from the Northwest
Temperature 32°C
Humidity 71%
Pressure 1006 hPa
Visibility 10 km or more
Scattered clouds at a height of 1800 ft
Broken clouds at a height of 28000 ft

METAR: VRMM 261000Z 31007KT 9999 SCT018 BKN280 32/26 Q1006 TEMPO FEW018CB

Time: 16:22 (11:22 UTC)

Forecast

The report was made 6 hours and 22 minutes ago, at 05:00 UTC
Forecast valid from 26 at 06 UTC to 27 at 12 UTC
Wind 10 kt from the West/Northwest
Visibility 10 km or more
Few clouds at a height of 1800 ft
Temporary
from 26 at 10 UTC to 26 at 16 UTC
Visibility: 5000 m
Few clouds at a height of 1800 ft, Cumulonimbus.
thunderstorm, light rain

TAF: VRMM 260500Z 2606/2712 29010KT 9999 FEW018 TEMPO 2610/2616 5000 -TSRA FEW018CB

Weather observations and forecasts of more than 4000 airports (METAR and TAF reports).

The available stations are represented by yellow and red dots on the map.

Hover mouse over dot to see the name of the station.

Then click to see weather observations and forecasts.

To change the map : click on the green buttons with a black cross to zoom in, on the green button with a dash to zoom out, or on the green arrows for adjacent maps.


METAR-TAF: